Time;durP1;ratioP1;P1;durP2;ratioP2;P2;SDS_P1;SDS_P2;PMS_P1;PMS_P2;Temp;Humidity;BMP_temperature;BMP_pressure;BME280_temperature;BME280_humidity;BME280_pressure;Samples;Min_cycle;Max_cycle;Signal;HPM_P1;HPM_P2
2021/01/12 00:02:23;;;;;;;;;;;1.40;99.90;;;;;;4896284;29;19934;-83
2021/01/12 00:04:50;;;;;;;;;;;1.40;99.90;;;;;;4895966;29;19931;-83
2021/01/12 00:07:19;;;;;;;;;;;1.40;99.90;;;;;;4894662;29;19938;-82
2021/01/12 00:09:48;;;;;;;;;;;1.40;99.90;;;;;;4895807;29;19934;-82
2021/01/12 00:12:16;;;;;;;;;;;1.50;99.90;;;;;;4866631;29;19923;-83
2021/01/12 00:14:43;;;;;;;;;;;1.50;99.90;;;;;;4877918;29;19928;-82
2021/01/12 00:17:13;;;;;;;;;;;1.50;99.90;;;;;;4879693;29;19923;-80
2021/01/12 00:19:41;;;;;;;;;;;1.60;99.90;;;;;;4893213;29;19923;-82
2021/01/12 00:22:14;;;;;;;;;;;1.60;99.90;;;;;;4892210;29;19931;-82
2021/01/12 00:24:41;;;;;;;;;;;1.60;99.90;;;;;;4908497;29;20368;-82
2021/01/12 00:27:08;;;;;;;;;;;1.60;99.90;;;;;;4864789;29;19923;-82
2021/01/12 00:29:37;;;;;;;;;;;1.70;99.90;;;;;;4902830;29;20262;-81
2021/01/12 00:32:05;;;;;;;;;;;1.70;99.90;;;;;;4882239;29;19924;-80
2021/01/12 00:34:32;;;;;;;;;;;1.60;99.90;;;;;;4879504;29;19930;-80
2021/01/12 00:37:00;;;;;;;;;;;1.60;99.90;;;;;;4896886;29;19934;-82
2021/01/12 00:39:27;;;;;;;;;;;1.60;99.90;;;;;;4896846;29;19927;-81
2021/01/12 00:41:56;;;;;;;;;;;1.60;99.90;;;;;;4895062;29;19935;-82
2021/01/12 00:44:23;;;;;;;;;;;1.60;99.90;;;;;;4883918;29;19924;-81
2021/01/12 00:46:50;;;;;;;;;;;1.60;99.90;;;;;;4870379;29;19935;-81
2021/01/12 00:49:18;;;;;;;;;;;1.70;99.90;;;;;;4880902;29;19928;-82
2021/01/12 00:51:46;;;;;;;;;;;1.70;99.90;;;;;;4866505;29;19930;-81
2021/01/12 00:54:14;;;;;;;;;;;1.70;99.90;;;;;;4890694;29;19923;-81
2021/01/12 00:56:42;;;;;;;;;;;1.70;99.90;;;;;;4882906;29;20409;-80
2021/01/12 00:59:09;;;;;;;;;;;1.70;99.90;;;;;;4870911;29;19934;-81
2021/01/12 01:01:37;;;;;;;;;;;1.70;99.90;;;;;;4891761;29;19931;-81
2021/01/12 01:04:04;;;;;;;;;;;1.70;99.90;;;;;;4895444;29;19931;-82
2021/01/12 01:06:32;;;;;;;;;;;1.70;99.90;;;;;;4884162;29;19924;-82
2021/01/12 01:08:59;;;;;;;;;;;1.70;99.90;;;;;;4896113;29;19930;-81
2021/01/12 01:11:32;;;;;;;;;;;1.70;99.90;;;;;;4870506;29;19938;-82
2021/01/12 01:14:01;;;;;;;;;;;1.80;99.90;;;;;;4875504;29;19938;-82
2021/01/12 01:16:31;;;;;;;;;;;1.80;99.90;;;;;;4881404;29;19927;-80
2021/01/12 01:18:58;;;;;;;;;;;1.70;99.90;;;;;;4883295;29;19923;-80
2021/01/12 01:21:25;;;;;;;;;;;1.80;99.90;;;;;;4882064;29;19938;-80
2021/01/12 01:23:52;;;;;;;;;;;1.70;99.90;;;;;;4851843;29;20231;-82
2021/01/12 01:26:20;;;;;;;;;;;1.80;99.90;;;;;;4864764;29;20365;-79
2021/01/12 01:28:48;;;;;;;;;;;1.80;99.90;;;;;;4881914;29;19927;-82
2021/01/12 01:31:17;;;;;;;;;;;1.80;99.90;;;;;;4860333;29;20258;-80
2021/01/12 01:33:47;;;;;;;;;;;1.80;99.90;;;;;;4878376;29;20362;-80
2021/01/12 01:36:17;;;;;;;;;;;1.80;99.90;;;;;;4878919;29;19930;-82
2021/01/12 01:38:46;;;;;;;;;;;1.80;99.90;;;;;;4882669;29;20353;-82
2021/01/12 01:41:13;;;;;;;;;;;1.80;99.90;;;;;;4880932;29;19934;-80
2021/01/12 01:43:43;;;;;;;;;;;1.90;99.90;;;;;;4888813;29;19923;-81
2021/01/12 01:46:11;;;;;;;;;;;1.90;99.90;;;;;;4896406;29;19924;-82
2021/01/12 01:48:38;;;;;;;;;;;2.00;99.90;;;;;;4879460;29;19927;-82
2021/01/12 01:51:06;;;;;;;;;;;2.00;99.90;;;;;;4888437;29;19934;-82
2021/01/12 01:53:34;;;;;;;;;;;2.00;99.90;;;;;;4886968;29;19923;-81
2021/01/12 01:56:03;;;;;;;;;;;2.00;99.90;;;;;;4884706;29;19939;-81
2021/01/12 01:58:32;;;;;;;;;;;2.00;99.90;;;;;;4874350;29;19923;-81
2021/01/12 02:01:00;;;;;;;;;;;2.00;99.90;;;;;;4858663;29;19923;-80
2021/01/12 02:03:30;;;;;;;;;;;2.00;99.90;;;;;;4873155;29;19931;-82
2021/01/12 02:06:00;;;;;;;;;;;1.80;99.90;;;;;;4872273;29;20372;-81
2021/01/12 02:08:33;;;;;;;;;;;1.70;99.90;;;;;;4889107;29;19931;-82
2021/01/12 02:11:00;;;;;;;;;;;1.60;99.90;;;;;;4885026;29;20350;-82
2021/01/12 02:13:31;;;;;;;;;;;1.60;99.90;;;;;;4889953;29;20261;-83
2021/01/12 02:16:00;;;;;;;;;;;1.60;99.90;;;;;;4890521;29;19923;-82
2021/01/12 02:18:32;;;;;;;;;;;1.70;99.90;;;;;;4900437;29;19931;-81
2021/01/12 02:21:03;;;;;;;;;;;1.70;99.90;;;;;;4865627;29;19927;-82
2021/01/12 02:23:33;;;;;;;;;;;1.70;99.90;;;;;;4909779;29;19934;-81
2021/01/12 02:26:04;;;;;;;;;;;1.70;99.90;;;;;;4881949;29;20235;-83
2021/01/12 02:28:31;;;;;;;;;;;1.70;99.90;;;;;;4897388;29;19931;-83
2021/01/12 02:30:58;;;;;;;;;;;1.80;99.90;;;;;;4876270;29;19923;-81
2021/01/12 02:33:25;;;;;;;;;;;1.80;99.90;;;;;;4867795;29;19923;-81
2021/01/12 02:35:55;;;;;;;;;;;1.80;99.90;;;;;;4885704;29;20354;-82
2021/01/12 02:38:22;;;;;;;;;;;1.70;99.90;;;;;;4877948;29;19934;-81
2021/01/12 02:40:49;;;;;;;;;;;1.70;99.90;;;;;;4900707;29;19924;-83
2021/01/12 02:43:17;;;;;;;;;;;1.80;99.90;;;;;;4899259;29;19923;-82
2021/01/12 02:45:47;;;;;;;;;;;1.80;99.90;;;;;;4897390;29;19934;-82
2021/01/12 02:48:14;;;;;;;;;;;1.70;99.90;;;;;;4929341;29;19923;-83
2021/01/12 02:50:42;;;;;;;;;;;1.80;99.90;;;;;;4886551;29;19934;-83
2021/01/12 02:53:09;;;;;;;;;;;1.80;99.90;;;;;;4900067;29;19934;-81
2021/01/12 02:55:36;;;;;;;;;;;1.80;99.90;;;;;;4877605;29;19924;-81
2021/01/12 02:58:03;;;;;;;;;;;1.80;99.90;;;;;;4893339;29;19923;-81
2021/01/12 03:00:31;;;;;;;;;;;1.80;99.90;;;;;;4896027;29;19927;-81
2021/01/12 03:02:58;;;;;;;;;;;1.80;99.90;;;;;;4870628;29;19920;-82
2021/01/12 03:05:28;;;;;;;;;;;1.70;99.90;;;;;;4895754;29;19927;-82
2021/01/12 03:07:55;;;;;;;;;;;1.70;99.90;;;;;;4881615;29;19923;-83
2021/01/12 03:10:22;;;;;;;;;;;1.70;99.90;;;;;;4890690;29;19924;-83
2021/01/12 03:12:49;;;;;;;;;;;1.70;99.90;;;;;;4886933;29;19926;-82
2021/01/12 03:15:18;;;;;;;;;;;1.60;99.90;;;;;;4879632;29;19944;-82
2021/01/12 03:17:46;;;;;;;;;;;1.70;99.90;;;;;;4906917;29;19943;-82
2021/01/12 03:20:14;;;;;;;;;;;1.60;99.90;;;;;;4881675;29;19923;-82
2021/01/12 03:22:41;;;;;;;;;;;1.60;99.90;;;;;;4886420;29;19927;-82
2021/01/12 03:25:11;;;;;;;;;;;1.50;99.90;;;;;;4903341;29;19924;-83
2021/01/12 03:27:38;;;;;;;;;;;1.40;99.90;;;;;;4888382;29;19920;-84
2021/01/12 03:30:08;;;;;;;;;;;1.40;99.90;;;;;;4920542;29;19915;-83
2021/01/12 03:32:35;;;;;;;;;;;1.30;99.90;;;;;;4900106;29;19908;-83
2021/01/12 03:35:04;;;;;;;;;;;1.20;99.90;;;;;;4864706;29;19924;-82
2021/01/12 03:37:31;;;;;;;;;;;1.10;99.90;;;;;;4904212;29;19923;-81
2021/01/12 03:40:01;;;;;;;;;;;1.20;99.90;;;;;;4922572;29;19935;-82
2021/01/12 03:42:28;;;;;;;;;;;1.00;99.90;;;;;;4876227;29;19931;-81
2021/01/12 03:44:55;;;;;;;;;;;1.00;99.90;;;;;;4875096;29;19934;-82
2021/01/12 03:47:22;;;;;;;;;;;0.90;99.90;;;;;;4874302;29;20258;-81
2021/01/12 03:49:52;;;;;;;;;;;0.90;99.90;;;;;;4878030;29;19978;-82
2021/01/12 03:52:21;;;;;;;;;;;0.90;99.90;;;;;;4888385;29;19927;-82
2021/01/12 03:54:48;;;;;;;;;;;0.80;99.90;;;;;;4902427;29;19927;-82
2021/01/12 03:57:18;;;;;;;;;;;0.80;99.90;;;;;;4892012;29;19927;-83
2021/01/12 03:59:45;;;;;;;;;;;0.80;99.90;;;;;;4902318;29;19993;-83
2021/01/12 04:02:12;;;;;;;;;;;0.80;99.90;;;;;;4879431;29;19924;-82
2021/01/12 04:04:39;;;;;;;;;;;0.80;99.90;;;;;;4895247;29;19938;-83
2021/01/12 04:07:06;;;;;;;;;;;0.80;99.90;;;;;;4877553;29;19923;-82
2021/01/12 04:09:34;;;;;;;;;;;0.80;99.90;;;;;;4864662;29;20342;-82
2021/01/12 04:12:01;;;;;;;;;;;0.80;99.90;;;;;;4893000;29;20382;-82
2021/01/12 04:14:28;;;;;;;;;;;0.80;99.90;;;;;;4893126;29;19927;-83
2021/01/12 04:16:56;;;;;;;;;;;0.80;99.90;;;;;;4867095;29;19930;-81
2021/01/12 04:19:23;;;;;;;;;;;0.80;99.90;;;;;;4905246;29;19932;-81
2021/01/12 04:21:51;;;;;;;;;;;0.80;99.90;;;;;;4885404;29;20276;-81
2021/01/12 04:24:18;;;;;;;;;;;0.80;99.90;;;;;;4892347;29;20409;-81
2021/01/12 04:26:46;;;;;;;;;;;0.70;99.90;;;;;;4905301;29;20365;-82
2021/01/12 04:29:13;;;;;;;;;;;0.80;99.90;;;;;;4876856;29;19930;-82
2021/01/12 04:31:40;;;;;;;;;;;0.80;99.90;;;;;;4910056;29;19923;-83
2021/01/12 04:34:07;;;;;;;;;;;0.80;99.90;;;;;;4900266;29;19923;-83
2021/01/12 04:36:34;;;;;;;;;;;0.80;99.90;;;;;;4913499;29;19939;-82
2021/01/12 04:39:02;;;;;;;;;;;0.80;99.90;;;;;;4903134;29;20368;-82
2021/01/12 04:41:30;;;;;;;;;;;0.80;99.90;;;;;;4885094;29;20024;-83
2021/01/12 04:43:59;;;;;;;;;;;0.80;99.90;;;;;;4885985;29;19924;-83
2021/01/12 04:46:28;;;;;;;;;;;0.90;99.90;;;;;;4904662;29;19914;-85
2021/01/12 04:48:58;;;;;;;;;;;1.00;99.90;;;;;;4892147;29;19923;-84
2021/01/12 04:51:28;;;;;;;;;;;1.00;99.90;;;;;;4890834;29;19924;-84
2021/01/12 04:53:57;;;;;;;;;;;1.10;99.90;;;;;;4870761;29;19933;-84
2021/01/12 04:56:26;;;;;;;;;;;1.10;99.90;;;;;;4892654;29;19911;-84
2021/01/12 04:59:04;;;;;;;;;;;1.10;99.90;;;;;;4876981;29;19914;-86
2021/01/12 05:27:45;;;;;;;;;;;1.20;99.90;;;;;;5687653;23;20742;-83
2021/01/12 05:30:13;;;;;;;;;;;1.10;99.90;;;;;;4921064;29;19907;-85
2021/01/12 05:32:41;;;;;;;;;;;1.20;99.90;;;;;;4923633;29;19907;-83
2021/01/12 05:35:09;;;;;;;;;;;1.20;99.90;;;;;;4955504;29;19907;-83
2021/01/12 05:37:37;;;;;;;;;;;1.20;99.90;;;;;;4909947;29;19933;-83
2021/01/12 05:40:05;;;;;;;;;;;1.20;99.90;;;;;;4926738;29;19925;-83
2021/01/12 05:42:38;;;;;;;;;;;1.30;99.90;;;;;;4937141;29;19922;-82
2021/01/12 05:45:09;;;;;;;;;;;1.20;99.90;;;;;;4935639;29;19923;-83
2021/01/12 05:47:37;;;;;;;;;;;1.20;99.90;;;;;;4933238;29;19914;-83
2021/01/12 05:50:05;;;;;;;;;;;1.20;99.90;;;;;;4939847;29;19923;-85
2021/01/12 05:52:44;;;;;;;;;;;1.10;99.90;;;;;;4930860;24;20856;-84
2021/01/12 05:55:15;;;;;;;;;;;1.10;99.90;;;;;;4895502;29;19907;-82
2021/01/12 05:57:46;;;;;;;;;;;1.10;99.90;;;;;;4908955;29;19923;-83
2021/01/12 06:00:15;;;;;;;;;;;1.10;99.90;;;;;;4908734;29;19914;-83
2021/01/12 06:02:47;;;;;;;;;;;1.20;99.90;;;;;;4919928;29;19927;-84
2021/01/12 06:05:14;;;;;;;;;;;1.10;99.90;;;;;;4925900;29;19934;-82
2021/01/12 06:07:42;;;;;;;;;;;1.10;99.90;;;;;;4920978;29;19930;-82
2021/01/12 06:10:13;;;;;;;;;;;1.10;99.90;;;;;;4899119;29;19934;-81
2021/01/12 06:12:42;;;;;;;;;;;1.10;99.90;;;;;;4891626;29;19924;-80
2021/01/12 06:15:16;;;;;;;;;;;1.10;99.90;;;;;;4909576;29;19924;-81
2021/01/12 06:17:44;;;;;;;;;;;1.10;99.90;;;;;;4889662;29;19923;-81
2021/01/12 06:20:15;;;;;;;;;;;1.10;99.90;;;;;;4902458;29;19924;-82
2021/01/12 06:22:47;;;;;;;;;;;1.10;99.90;;;;;;4921984;29;19923;-82
2021/01/12 06:25:15;;;;;;;;;;;1.10;99.90;;;;;;4909453;29;19940;-83
2021/01/12 06:27:42;;;;;;;;;;;1.10;99.90;;;;;;4904773;29;19914;-85
2021/01/12 06:30:17;;;;;;;;;;;1.10;99.90;;;;;;4890939;29;19924;-84
2021/01/12 06:32:46;;;;;;;;;;;1.10;99.90;;;;;;4890639;29;19927;-84
2021/01/12 06:35:13;;;;;;;;;;;1.10;99.90;;;;;;4905930;29;19908;-85
2021/01/12 06:41:02;;;;;;;;;;;1.10;99.90;;;;;;5956532;23;19929;31
2021/01/12 07:09:59;;;;;;;;;;;1.00;99.90;;;;;;5165463;23;19907;-83
2021/01/12 07:12:30;;;;;;;;;;;1.00;99.90;;;;;;4922852;29;19917;-84
2021/01/12 07:14:59;;;;;;;;;;;1.00;99.90;;;;;;4906533;29;19907;-84
2021/01/12 07:17:29;;;;;;;;;;;1.00;99.90;;;;;;4940024;29;19907;-85
2021/01/12 07:20:11;;;;;;;;;;;0.90;99.90;;;;;;4900311;29;19907;-83
2021/01/12 07:22:39;;;;;;;;;;;0.90;99.90;;;;;;4898963;29;19923;-82
2021/01/12 07:25:13;;;;;;;;;;;0.90;99.90;;;;;;4916519;29;19922;-83
2021/01/12 07:27:59;;;;;;;;;;;1.00;99.90;;;;;;4934403;29;19907;-83
2021/01/12 07:30:27;;;;;;;;;;;0.90;99.90;;;;;;4902288;29;19911;-83
2021/01/12 07:32:56;;;;;;;;;;;1.00;99.90;;;;;;4939362;29;19938;-84
2021/01/12 07:35:25;;;;;;;;;;;1.00;99.90;;;;;;4919033;29;19945;-83
2021/01/12 07:37:55;;;;;;;;;;;1.00;99.90;;;;;;4921221;29;19919;-84
2021/01/12 07:40:26;;;;;;;;;;;0.90;99.90;;;;;;4916210;29;19933;-84
2021/01/12 07:42:56;;;;;;;;;;;0.90;99.90;;;;;;4916575;29;19923;-83
2021/01/12 07:45:25;;;;;;;;;;;0.90;99.90;;;;;;4934865;29;19907;-82
2021/01/12 07:47:53;;;;;;;;;;;0.90;99.90;;;;;;4910552;29;19930;-85
2021/01/12 07:50:23;;;;;;;;;;;0.90;99.90;;;;;;4925936;29;19950;-84
2021/01/12 07:52:50;;;;;;;;;;;0.90;99.90;;;;;;4925121;29;19924;-85
2021/01/12 08:06:48;;;;;;;;;;;1.00;99.90;;;;;;4864100;29;19924;-82
2021/01/12 08:09:22;;;;;;;;;;;1.00;99.90;;;;;;4850561;29;19925;-83
2021/01/12 08:11:51;;;;;;;;;;;0.90;99.90;;;;;;4851021;29;19929;-83
2021/01/12 08:17:19;;;;;;;;;;;1.10;99.90;;;;;;4850508;29;19944;-83
2021/01/12 08:19:48;;;;;;;;;;;1.00;99.90;;;;;;4834337;29;19915;-82
2021/01/12 08:25:10;;;;;;;;;;;1.00;99.90;;;;;;5877088;23;19929;-84
2021/01/12 08:27:38;;;;;;;;;;;1.00;99.90;;;;;;4903691;29;19907;-86
2021/01/12 08:35:54;;;;;;;;;;;1.10;99.90;;;;;;5673220;23;19907;-84
2021/01/12 08:41:15;;;;;;;;;;;1.10;99.90;;;;;;5547361;23;19914;-83
2021/01/12 08:43:44;;;;;;;;;;;1.10;99.90;;;;;;4909080;29;19913;-85
2021/01/12 08:46:12;;;;;;;;;;;1.10;99.90;;;;;;4912587;29;19907;-83
2021/01/12 08:51:54;;;;;;;;;;;1.10;99.90;;;;;;5819129;23;19933;-84
2021/01/12 09:03:03;;;;;;;;;;;1.10;99.90;;;;;;5869424;23;19933;-81
2021/01/12 09:08:21;;;;;;;;;;;1.20;99.90;;;;;;5453840;23;19930;-82
2021/01/12 09:10:49;;;;;;;;;;;1.30;99.90;;;;;;4926970;29;19927;-82
2021/01/12 09:16:11;;;;;;;;;;;1.30;99.90;;;;;;4911131;29;20276;-80
2021/01/12 09:18:38;;;;;;;;;;;1.40;99.90;;;;;;4904524;29;20368;-78
2021/01/12 09:21:07;;;;;;;;;;;1.40;99.90;;;;;;4888657;29;19934;-80
2021/01/12 09:23:37;;;;;;;;;;;1.40;99.90;;;;;;4921881;29;19933;-80
2021/01/12 09:26:04;;;;;;;;;;;1.40;99.90;;;;;;4924426;29;19938;-82
2021/01/12 09:28:35;;;;;;;;;;;1.50;99.90;;;;;;4911529;29;20379;-80
2021/01/12 09:31:06;;;;;;;;;;;1.50;99.90;;;;;;4911900;29;19930;-81
2021/01/12 09:33:33;;;;;;;;;;;1.50;99.90;;;;;;4927933;29;19923;-82
2021/01/12 09:36:08;;;;;;;;;;;1.50;99.90;;;;;;4915485;29;19934;-82
2021/01/12 09:38:36;;;;;;;;;;;1.60;99.90;;;;;;4905143;29;19923;-82
2021/01/12 09:41:06;;;;;;;;;;;1.60;99.90;;;;;;4924248;29;19933;-84
2021/01/12 09:43:33;;;;;;;;;;;1.60;99.90;;;;;;4940053;29;19933;-83
2021/01/12 09:46:04;;;;;;;;;;;1.60;99.90;;;;;;4939311;29;19926;-85
2021/01/12 09:48:33;;;;;;;;;;;1.60;99.90;;;;;;4910316;29;19927;-85
2021/01/12 09:51:01;;;;;;;;;;;1.70;99.90;;;;;;4924671;29;19923;-84
2021/01/12 09:53:29;;;;;;;;;;;1.70;99.90;;;;;;4909261;29;19923;-84
2021/01/12 09:56:04;;;;;;;;;;;1.80;99.90;;;;;;4921503;29;19937;-84
2021/01/12 09:58:35;;;;;;;;;;;1.70;99.90;;;;;;4920169;29;19933;-84
2021/01/12 10:01:05;;;;;;;;;;;1.80;99.90;;;;;;4917621;29;19930;-85
2021/01/12 10:04:03;;;;;;;;;;;1.80;99.90;;;;;;4904978;29;19922;-83
2021/01/12 10:07:05;;;;;;;;;;;1.80;99.90;;;;;;4922821;29;19919;-83
2021/01/12 10:13:56;;;;;;;;;;;1.90;99.90;;;;;;4831908;29;20387;-85
2021/01/12 10:16:28;;;;;;;;;;;1.90;99.90;;;;;;4800304;29;19936;-82
2021/01/12 10:18:58;;;;;;;;;;;2.00;99.90;;;;;;4809346;29;19935;-82
2021/01/12 10:21:28;;;;;;;;;;;2.00;99.90;;;;;;4824006;29;19935;-84
2021/01/12 10:23:58;;;;;;;;;;;2.00;99.90;;;;;;4808444;29;19924;-80
2021/01/12 10:26:26;;;;;;;;;;;2.00;99.90;;;;;;4829581;29;19925;-84
2021/01/12 10:29:02;;;;;;;;;;;2.00;99.90;;;;;;4796997;29;19925;-81
2021/01/12 10:31:37;;;;;;;;;;;2.00;99.90;;;;;;4791670;29;19936;-83
2021/01/12 10:34:08;;;;;;;;;;;2.00;99.90;;;;;;4817440;29;19925;-82
2021/01/12 10:36:39;;;;;;;;;;;2.00;99.90;;;;;;4805219;29;19924;-83
2021/01/12 10:39:11;;;;;;;;;;;2.00;99.90;;;;;;4800084;29;19925;-82
2021/01/12 10:41:43;;;;;;;;;;;2.00;99.90;;;;;;4810324;29;19932;-82
2021/01/12 10:44:38;;;;;;;;;;;2.00;99.90;;;;;;4795433;29;19925;-85
2021/01/12 10:47:43;;;;;;;;;;;2.00;99.90;;;;;;4755977;30;20020;-83
2021/01/12 10:50:21;;;;;;;;;;;2.00;99.90;;;;;;4888456;29;20354;-83
2021/01/12 10:52:49;;;;;;;;;;;2.00;99.90;;;;;;4926680;29;19924;-83
2021/01/12 10:55:19;;;;;;;;;;;2.00;99.90;;;;;;4895036;29;19934;-84
2021/01/12 10:57:50;;;;;;;;;;;2.10;99.90;;;;;;4896354;29;19923;-85
2021/01/12 11:00:19;;;;;;;;;;;2.10;99.90;;;;;;4895380;29;19923;-82
2021/01/12 11:02:56;;;;;;;;;;;2.20;99.90;;;;;;4911396;29;20253;-84
2021/01/12 11:05:29;;;;;;;;;;;2.20;99.90;;;;;;4901820;29;19908;-86
2021/01/12 11:08:03;;;;;;;;;;;2.20;99.90;;;;;;4921713;29;19934;-85
2021/01/12 11:10:31;;;;;;;;;;;2.20;99.90;;;;;;4908216;29;19923;-84
2021/01/12 11:13:04;;;;;;;;;;;2.20;99.90;;;;;;4924120;29;19923;-84
2021/01/12 11:15:38;;;;;;;;;;;2.20;99.90;;;;;;4908221;29;19906;-84
2021/01/12 11:18:14;;;;;;;;;;;2.20;99.90;;;;;;4905989;29;19923;-83
2021/01/12 11:20:50;;;;;;;;;;;2.20;99.90;;;;;;4919247;29;19919;-84
2021/01/12 11:23:18;;;;;;;;;;;2.20;99.90;;;;;;4906690;29;19930;-86
2021/01/12 11:25:46;;;;;;;;;;;2.20;99.90;;;;;;4906828;29;19933;-85
2021/01/12 11:28:16;;;;;;;;;;;2.30;99.90;;;;;;4925494;29;19933;-84
2021/01/12 11:30:45;;;;;;;;;;;2.30;99.90;;;;;;4922917;29;19933;-84
2021/01/12 11:33:12;;;;;;;;;;;2.30;99.90;;;;;;4925270;29;19923;-85
2021/01/12 11:35:42;;;;;;;;;;;2.40;99.90;;;;;;4907910;29;19907;-83
2021/01/12 11:38:12;;;;;;;;;;;2.40;99.90;;;;;;4920504;29;19931;-83
2021/01/12 11:41:06;;;;;;;;;;;2.40;99.90;;;;;;4919395;29;19938;-82
2021/01/12 11:43:34;;;;;;;;;;;2.30;99.90;;;;;;4918030;29;20381;-85
2021/01/12 11:46:01;;;;;;;;;;;2.30;99.90;;;;;;4899080;29;19927;-84
2021/01/12 11:48:29;;;;;;;;;;;2.30;99.90;;;;;;4901725;29;20312;-85
2021/01/12 11:50:57;;;;;;;;;;;2.30;99.90;;;;;;4922476;29;19930;-85
2021/01/12 11:53:25;;;;;;;;;;;2.40;99.90;;;;;;4907678;29;19923;-85
2021/01/12 11:55:55;;;;;;;;;;;2.30;99.90;;;;;;4922562;29;19933;-86
2021/01/12 11:58:24;;;;;;;;;;;2.30;99.90;;;;;;4923511;29;19923;-85
2021/01/12 12:00:52;;;;;;;;;;;2.40;99.90;;;;;;4908172;29;19923;-85
2021/01/12 12:03:20;;;;;;;;;;;2.30;99.90;;;;;;4926563;29;19927;-85
2021/01/12 12:05:49;;;;;;;;;;;2.30;99.90;;;;;;4938875;29;19933;-85
2021/01/12 12:08:16;;;;;;;;;;;2.30;99.90;;;;;;4917024;29;19924;-85
2021/01/12 12:10:46;;;;;;;;;;;2.30;99.90;;;;;;4914362;29;19907;-83
2021/01/12 12:13:20;;;;;;;;;;;2.30;99.90;;;;;;4931037;29;19923;-85
2021/01/12 12:15:49;;;;;;;;;;;2.40;99.90;;;;;;4913935;29;19923;-85
2021/01/12 12:18:19;;;;;;;;;;;2.40;99.90;;;;;;4903373;29;19934;-84
2021/01/12 12:20:49;;;;;;;;;;;2.40;99.90;;;;;;4900061;29;19946;-83
2021/01/12 12:23:17;;;;;;;;;;;2.50;99.90;;;;;;4899022;29;19923;-82
2021/01/12 12:25:48;;;;;;;;;;;2.50;99.90;;;;;;4909746;29;19933;-84
2021/01/12 12:28:17;;;;;;;;;;;2.50;99.90;;;;;;4892642;29;20230;-83
2021/01/12 12:30:45;;;;;;;;;;;2.50;99.90;;;;;;4875705;29;19923;-85
2021/01/12 12:33:23;;;;;;;;;;;2.60;99.90;;;;;;4907936;29;19923;-84
2021/01/12 12:35:58;;;;;;;;;;;2.60;99.90;;;;;;4892298;29;19935;-84
2021/01/12 12:38:25;;;;;;;;;;;2.60;99.90;;;;;;4911254;29;19924;-81
2021/01/12 12:41:14;;;;;;;;;;;2.60;99.90;;;;;;4912322;29;19924;-82
2021/01/12 12:43:44;;;;;;;;;;;2.70;99.90;;;;;;4899124;29;19930;-84
2021/01/12 12:46:21;;;;;;;;;;;2.70;99.90;;;;;;4902194;29;19924;-83
2021/01/12 12:48:49;;;;;;;;;;;2.70;99.90;;;;;;4916136;29;19923;-83
2021/01/12 12:51:17;;;;;;;;;;;2.70;99.90;;;;;;4904199;29;19931;-82
2021/01/12 12:53:46;;;;;;;;;;;2.70;99.90;;;;;;4887321;29;19931;-83
2021/01/12 12:56:15;;;;;;;;;;;2.70;99.90;;;;;;4915641;29;19936;-81
2021/01/12 12:58:43;;;;;;;;;;;2.70;99.90;;;;;;4932136;29;19924;-83
2021/01/12 13:01:12;;;;;;;;;;;2.70;99.90;;;;;;4917448;29;19931;-81
2021/01/12 13:03:40;;;;;;;;;;;2.70;99.90;;;;;;4916189;29;19927;-82
2021/01/12 13:06:08;;;;;;;;;;;2.70;99.90;;;;;;4902549;29;19933;-84
2021/01/12 13:08:36;;;;;;;;;;;2.70;99.90;;;;;;4910852;29;19993;-83
2021/01/12 13:11:04;;;;;;;;;;;2.60;99.90;;;;;;4890528;29;19930;-83
2021/01/12 13:13:33;;;;;;;;;;;2.60;99.90;;;;;;4882235;29;19924;-82
2021/01/12 13:16:00;;;;;;;;;;;2.70;99.90;;;;;;4884063;29;19927;-84
2021/01/12 13:18:28;;;;;;;;;;;2.70;99.90;;;;;;4896970;29;19931;-83
2021/01/12 13:20:57;;;;;;;;;;;2.60;99.90;;;;;;4883393;29;19914;-82
2021/01/12 13:23:25;;;;;;;;;;;2.70;99.90;;;;;;4900281;29;19934;-84
2021/01/12 13:25:54;;;;;;;;;;;2.70;99.90;;;;;;4880472;29;19924;-83
2021/01/12 13:28:23;;;;;;;;;;;2.60;99.90;;;;;;4889121;29;19931;-84
2021/01/12 13:30:57;;;;;;;;;;;2.60;99.90;;;;;;4896837;29;19928;-83
2021/01/12 13:33:30;;;;;;;;;;;2.60;99.90;;;;;;4904796;29;19916;-81
2021/01/12 13:36:05;;;;;;;;;;;2.60;99.90;;;;;;4903847;29;19923;-84
2021/01/12 13:38:38;;;;;;;;;;;2.60;99.90;;;;;;4889081;29;19926;-83
2021/01/12 13:41:09;;;;;;;;;;;2.60;99.90;;;;;;4886620;29;19914;-82
2021/01/12 13:43:40;;;;;;;;;;;2.50;99.90;;;;;;4887724;29;19945;-84
2021/01/12 13:46:22;;;;;;;;;;;2.60;99.90;;;;;;4888138;29;19934;-84
2021/01/12 13:48:55;;;;;;;;;;;2.50;99.90;;;;;;4896173;29;19931;-84
2021/01/12 13:51:51;;;;;;;;;;;2.50;99.90;;;;;;4889505;29;19932;-84
2021/01/12 13:54:24;;;;;;;;;;;2.60;99.90;;;;;;4898164;29;19938;-83
2021/01/12 13:56:58;;;;;;;;;;;2.60;99.90;;;;;;4886997;29;19934;-84
2021/01/12 13:59:34;;;;;;;;;;;2.60;99.90;;;;;;4877068;29;19923;-83
2021/01/12 14:02:16;;;;;;;;;;;2.70;99.90;;;;;;4887576;29;19934;-84
2021/01/12 14:05:10;;;;;;;;;;;;;;;;;;;;;
2021/01/12 14:07:40;;;;;;;;;;;2.80;99.90;;;;;;4916210;29;19930;-84
2021/01/12 14:10:35;;;;;;;;;;;2.80;99.90;;;;;;4921904;29;19924;-83
2021/01/12 14:13:03;;;;;;;;;;;2.80;99.90;;;;;;4906522;29;19917;-83
2021/01/12 14:15:50;;;;;;;;;;;2.80;99.90;;;;;;4924058;29;19923;-85
2021/01/12 14:21:41;;;;;;;;;;;2.90;99.90;;;;;;4907723;29;19911;-84
2021/01/12 14:24:34;;;;;;;;;;;2.90;99.90;;;;;;4938720;29;19923;-83
2021/01/12 14:27:26;;;;;;;;;;;2.80;99.90;;;;;;4906208;29;19924;-83
2021/01/12 14:30:10;;;;;;;;;;;2.90;99.90;;;;;;4901287;29;19931;-84
2021/01/12 14:33:03;;;;;;;;;;;3.00;99.90;;;;;;4895409;29;19931;-85
2021/01/12 14:35:45;;;;;;;;;;;2.90;99.90;;;;;;4904397;29;19923;-83
2021/01/12 14:38:16;;;;;;;;;;;2.90;99.90;;;;;;4906213;29;19924;-83
2021/01/12 14:40:49;;;;;;;;;;;2.90;99.90;;;;;;4906821;29;19934;-84
2021/01/12 14:43:18;;;;;;;;;;;2.90;99.90;;;;;;4904911;29;19907;-84
2021/01/12 14:45:50;;;;;;;;;;;2.80;99.90;;;;;;4904728;29;19911;-83
2021/01/12 14:48:20;;;;;;;;;;;2.90;99.90;;;;;;4919960;29;19907;-85
2021/01/12 14:50:56;;;;;;;;;;;2.80;99.90;;;;;;4906862;29;19923;-84
2021/01/12 14:53:24;;;;;;;;;;;2.70;99.90;;;;;;4907527;29;19911;-84
2021/01/12 14:55:52;;;;;;;;;;;2.70;99.90;;;;;;4923211;29;20342;-85
2021/01/12 14:58:30;;;;;;;;;;;2.60;99.90;;;;;;4906391;29;19925;-84
2021/01/12 15:00:58;;;;;;;;;;;2.70;99.90;;;;;;4906853;29;19924;-83
2021/01/12 15:03:35;;;;;;;;;;;2.60;99.90;;;;;;4921046;29;19923;-85
2021/01/12 15:06:05;;;;;;;;;;;2.60;99.90;;;;;;4915172;29;19934;-84
2021/01/12 15:08:33;;;;;;;;;;;2.60;99.90;;;;;;4899381;29;19923;-83
2021/01/12 15:11:01;;;;;;;;;;;2.60;99.90;;;;;;4897106;29;19938;-83
2021/01/12 15:13:32;;;;;;;;;;;2.50;99.90;;;;;;4877639;29;19938;-85
2021/01/12 15:16:03;;;;;;;;;;;2.50;99.90;;;;;;4896576;29;19924;-83
2021/01/12 15:18:34;;;;;;;;;;;2.50;99.90;;;;;;4888405;29;19935;-83
2021/01/12 15:21:02;;;;;;;;;;;2.50;99.90;;;;;;4877985;29;20342;-83
2021/01/12 15:23:31;;;;;;;;;;;2.40;99.90;;;;;;4881292;29;19924;-82
2021/01/12 15:26:03;;;;;;;;;;;2.40;99.90;;;;;;4912479;29;19907;-85
2021/01/12 15:28:31;;;;;;;;;;;2.40;99.90;;;;;;4901742;29;19930;-83
2021/01/12 15:30:58;;;;;;;;;;;2.40;99.90;;;;;;4936750;29;19924;-83
2021/01/12 15:33:27;;;;;;;;;;;2.40;99.90;;;;;;4887195;29;19943;-83
2021/01/12 15:35:54;;;;;;;;;;;2.40;99.90;;;;;;4892249;29;19924;-83
2021/01/12 15:38:23;;;;;;;;;;;2.50;99.90;;;;;;4903170;29;19914;-83
2021/01/12 15:40:54;;;;;;;;;;;2.60;99.90;;;;;;4908463;29;19919;-82
2021/01/12 15:43:24;;;;;;;;;;;2.50;99.90;;;;;;4903175;29;19907;-84
2021/01/12 15:46:04;;;;;;;;;;;2.40;99.90;;;;;;4902608;29;19912;-83
2021/01/12 15:48:33;;;;;;;;;;;2.40;99.90;;;;;;4903521;29;19908;-84
2021/01/12 15:51:01;;;;;;;;;;;2.40;99.90;;;;;;4903945;29;19926;-83
2021/01/12 15:53:31;;;;;;;;;;;2.40;99.90;;;;;;4899016;29;19939;-83
2021/01/12 15:56:01;;;;;;;;;;;2.30;99.90;;;;;;4916967;29;19923;-83
2021/01/12 15:58:56;;;;;;;;;;;2.30;99.90;;;;;;4903040;29;19934;-83
2021/01/12 16:01:35;;;;;;;;;;;2.40;99.90;;;;;;4902398;29;19934;-84
2021/01/12 16:04:08;;;;;;;;;;;2.40;99.90;;;;;;4910726;29;19923;-84
2021/01/12 16:06:47;;;;;;;;;;;2.20;99.90;;;;;;4900297;29;19907;-84
2021/01/12 16:09:20;;;;;;;;;;;2.20;99.90;;;;;;4905957;29;19907;-84
2021/01/12 16:11:50;;;;;;;;;;;2.10;99.90;;;;;;4905783;29;19934;-83
2021/01/12 16:14:18;;;;;;;;;;;2.10;99.90;;;;;;4921481;29;19911;-84
2021/01/12 16:16:50;;;;;;;;;;;2.10;99.90;;;;;;4922054;29;19942;-81
2021/01/12 16:19:18;;;;;;;;;;;2.10;99.90;;;;;;4905591;29;19924;-82
2021/01/12 16:21:47;;;;;;;;;;;2.10;99.90;;;;;;4907821;29;19930;-83
2021/01/12 16:24:18;;;;;;;;;;;2.10;99.90;;;;;;4920500;29;19923;-83
2021/01/12 16:27:21;;;;;;;;;;;2.00;99.90;;;;;;4897504;29;19917;-84
2021/01/12 16:29:53;;;;;;;;;;;2.10;99.90;;;;;;4922202;29;19907;-83
2021/01/12 16:32:23;;;;;;;;;;;2.00;99.90;;;;;;4914467;29;19939;-85
2021/01/12 16:34:52;;;;;;;;;;;2.00;99.90;;;;;;4903368;29;19919;-83
2021/01/12 16:37:22;;;;;;;;;;;2.00;99.90;;;;;;4904417;29;19919;-83
2021/01/12 16:39:53;;;;;;;;;;;1.90;99.90;;;;;;4906467;29;19923;-84